»·PEaware :: N9915H KLAS-KSNA

N9915H :: KLAS-KSNA

FLIGHT INFORMATION

Flight Status: Arrived
Operator: Privately registered:
United States
More flights under this callsign
Pilot: Charlton B. (28558)
Aircraft: CIRRUS VISIONJET
(SF50)
More flights by this aircraft type
Origin: KLAS McCarran Intl
United States
Destination: KSNA John Wayne-Orange Co
United States
More flights between these airports :: More routes between these airports
Route: BOACH8 WHIGG FEYLA DSNEE4
File this flight plan on PilotEdge
Remarks:
Altitude:
(Current/Filed)
20,000ft
Speed:
(Current/Filed)
180kts
Departed: 09-Sep-20 12:36 PM
Arrived: 09-Sep-20 01:37 PM
Distance/Time
Traveled:
196nm/1:00
Distance/Time
To Go:
Arrived

Flight Plot

Page will automatically refresh every two minutes.

Flight plan parsing failed; only flown route is shown


Map Options




Map Legend


Flown Route
Filed Route
Departure Airport
Arrival Airport
Navaid (VOR, NDB)
Fix

Horizontal Profiles

Position Reports

Time Latitude Longitude Heading Altitude Ground
Speed
09-Sep-20 12:12 36.081235 -115.170539 89 2168ft 0kts
09-Sep-20 12:13 36.081235 -115.170539 89 2168ft 0kts
09-Sep-20 12:14 36.081235 -115.170539 89 2168ft 0kts
09-Sep-20 12:15 36.081235 -115.170539 89 2168ft 0kts
09-Sep-20 12:16 36.081235 -115.170539 89 2168ft 0kts
09-Sep-20 12:17 36.081235 -115.170539 89 2168ft 0kts
09-Sep-20 12:18 36.081235 -115.170539 89 2168ft 0kts
09-Sep-20 12:19 36.081235 -115.170539 89 2168ft 0kts
09-Sep-20 12:20 36.081235 -115.170539 89 2168ft 0kts
09-Sep-20 12:21 36.081235 -115.170539 89 2168ft 0kts
09-Sep-20 12:22 36.081235 -115.170539 89 2168ft 0kts
09-Sep-20 12:23 36.081235 -115.170539 89 2168ft 0kts
09-Sep-20 12:24 36.081235 -115.170539 89 2168ft 0kts
09-Sep-20 12:25 36.080909 -115.170186 214 2168ft 4kts
09-Sep-20 12:26 36.080666 -115.170357 201 2169ft 0kts
09-Sep-20 12:27 36.080637 -115.170371 201 2169ft 0kts
09-Sep-20 12:28 36.080608 -115.170386 202 2169ft 0kts
09-Sep-20 12:29 36.079731 -115.170252 203 2171ft 5kts
09-Sep-20 12:30 36.078226 -115.170072 116 2177ft 0kts
09-Sep-20 12:31 36.078226 -115.170072 116 2177ft 0kts
09-Sep-20 12:32 36.078226 -115.170072 116 2177ft 0kts
09-Sep-20 12:33 36.078226 -115.170072 116 2177ft 0kts
09-Sep-20 12:34 36.078467 -115.168573 28 2170ft 0kts
09-Sep-20 12:35 36.086602 -115.164142 26 2228ft 110kts
09-Sep-20 12:36 36.112132 -115.179045 274 4180ft 180kts
09-Sep-20 12:37 36.109381 -115.247135 272 6230ft 214kts
09-Sep-20 12:38 36.073441 -115.304090 205 8259ft 244kts
09-Sep-20 12:39 36.009751 -115.335974 202 9994ft 248kts
09-Sep-20 12:40 35.944973 -115.367741 204 10644ft 235kts
09-Sep-20 12:41 35.888691 -115.374789 164 12215ft 188kts
09-Sep-20 12:42 35.839968 -115.357363 160 13201ft 202kts
09-Sep-20 12:43 35.782917 -115.335389 160 14639ft 223kts
09-Sep-20 12:44 35.722969 -115.312092 159 16227ft 229kts
09-Sep-20 12:45 35.661930 -115.321521 226 17359ft 242kts
09-Sep-20 12:46 35.613601 -115.382068 233 18463ft 254kts
09-Sep-20 12:47 35.565013 -115.447176 233 19564ft 262kts
09-Sep-20 12:48 35.514868 -115.514454 233 20118ft 274kts
09-Sep-20 12:49 35.464407 -115.582464 234 20118ft 266kts
09-Sep-20 12:50 35.414972 -115.649077 234 20119ft 262kts
09-Sep-20 12:51 35.365882 -115.715093 233 20115ft 261kts
09-Sep-20 12:52 35.317071 -115.780610 233 20103ft 261kts
09-Sep-20 12:53 35.267969 -115.846380 233 20091ft 262kts
09-Sep-20 12:54 35.218617 -115.911687 232 20078ft 262kts
09-Sep-20 12:55 35.167922 -115.975802 232 20076ft 263kts
09-Sep-20 12:56 35.116840 -116.040205 231 20076ft 264kts
09-Sep-20 12:57 35.065738 -116.104500 231 20077ft 264kts
09-Sep-20 12:58 35.014425 -116.168934 232 20082ft 265kts
09-Sep-20 12:59 34.963166 -116.233179 232 20091ft 264kts
09-Sep-20 13:00 34.911904 -116.297310 233 20090ft 263kts
09-Sep-20 13:01 34.861370 -116.361039 234 20070ft 259kts
09-Sep-20 13:02 34.811820 -116.424185 234 20059ft 257kts
09-Sep-20 13:03 34.762489 -116.486949 234 20060ft 256kts
09-Sep-20 13:04 34.713177 -116.549563 234 20060ft 257kts
09-Sep-20 13:05 34.659537 -116.607807 227 20063ft 261kts
09-Sep-20 13:06 34.602712 -116.663498 226 20045ft 262kts
09-Sep-20 13:07 34.545617 -116.719281 226 20046ft 263kts
09-Sep-20 13:08 34.489965 -116.776355 231 19729ft 264kts
09-Sep-20 13:09 34.437542 -116.837038 232 18142ft 258kts
09-Sep-20 13:10 34.386285 -116.896558 232 16571ft 254kts
09-Sep-20 13:11 34.335753 -116.955028 231 15155ft 246kts
09-Sep-20 13:12 34.282315 -117.016624 229 14219ft 279kts
09-Sep-20 13:13 34.221024 -117.066756 216 13993ft 266kts
09-Sep-20 13:14 34.151696 -117.112999 208 12974ft 298kts
09-Sep-20 13:15 34.076044 -117.153709 208 12251ft 297kts
09-Sep-20 13:16 34.005397 -117.191651 214 11994ft 257kts
09-Sep-20 13:17 33.959084 -117.248935 235 11827ft 230kts
09-Sep-20 13:18 33.919486 -117.304309 236 10913ft 219kts
09-Sep-20 13:19 33.878629 -117.361982 236 9910ft 217kts
09-Sep-20 13:20 33.841894 -117.413834 236 8730ft 194kts
09-Sep-20 13:21 33.813242 -117.463506 255 8130ft 170kts
09-Sep-20 13:22 33.800798 -117.518208 277 8123ft 171kts
09-Sep-20 13:23 33.785963 -117.574640 244 7999ft 191kts
09-Sep-20 13:24 33.794937 -117.627569 311 6946ft 192kts
09-Sep-20 13:25 33.839461 -117.662654 331 5107ft 182kts
09-Sep-20 13:26 33.881572 -117.657917 11 5100ft 159kts
09-Sep-20 13:27 33.927561 -117.646475 335 4850ft 179kts
09-Sep-20 13:28 33.925405 -117.700119 248 3461ft 170kts
09-Sep-20 13:29 33.891046 -117.731779 211 3006ft 158kts
09-Sep-20 13:30 33.856964 -117.753642 212 2991ft 127kts
09-Sep-20 13:31 33.822811 -117.775436 211 2997ft 149kts
09-Sep-20 13:32 33.784085 -117.800060 210 2352ft 160kts
09-Sep-20 13:33 33.745476 -117.824579 208 1507ft 154kts
09-Sep-20 13:34 33.710450 -117.846801 207 746ft 119kts
09-Sep-20 13:35 33.689518 -117.860069 207 276ft 72kts
09-Sep-20 13:36 33.675815 -117.868735 213 60ft 20kts
09-Sep-20 13:37 33.673473 -117.867027 137 60ft 0kts
09-Sep-20 13:38 33.676441 -117.865004 29 60ft 13kts
09-Sep-20 13:39 33.677403 -117.864020 178 60ft 0kts
09-Sep-20 13:40 33.677403 -117.864020 178 60ft 0kts

Navigation Log

Ident Type
Flight plan parsing failed, navigation log unavailable